Anaa Tuamotu (NTGA)

Aerodrome — Elev 21
French Polynesia
S017.21.09.382 W145.30.35.840
Loading chart...

Current Weather

NTGA 241800Z 12007KT 9999 FEW020 27/24 Q1007

Published 166 days 1 hours 9 minutes ago

Airport Activity

Loading chart...
Loading chart...

Standard ATC Positions

CallsignRadio Name / Freq / Voice Room / TypeFrequencyVoice RoomType
NTTT_FSS Tahiti Radio
125.500
nttt_fss
125.500nttt_fss